Midland City, Alabama
Current Conditions -  °F | °C
As of 9:53 AM on Thursday 27 Nov 2014 (Local Time) from KDHN Reporting Station
Clear Clear  
Wind Chill: 52°   Ceiling: Unl
Heat Index: 52°   Visibility: 10mi
Dew Point: 33°   Wind: 15mph
Humidity: 49%   Direction: 340°NNW
Pressure: 30.37"   Gusts: NA
Location:  31.32°N, 85.49°W
Report Text: KDHN 271553Z 34013KT 10SM CLR 11/01 A3037 RMK AO2 SLP284 T01110006
Loading
Personal Weather Stations






























Interactive Weather Map New forecast layout! Learn more

10-Day Weather Forecast

Advertisements
Track Severe Weather on mobile